Time;durP1;ratioP1;P1;durP2;ratioP2;P2;SDS_P1;SDS_P2;PMS_P1;PMS_P2;Temp;Humidity;BMP_temperature;BMP_pressure;BME280_temperature;BME280_humidity;BME280_pressure;Samples;Min_cycle;Max_cycle;Signal;HPM_P1;HPM_P2
2021/04/04 00:01:04;;;;;;;9.18;2.35;;;;;;;4.74;62.33;97140.66;4982581;28;20181;-71
2021/04/04 00:03:32;;;;;;;10.77;3.03;;;;;;;4.63;63.23;97134.16;4967056;28;20695;-71
2021/04/04 00:05:58;;;;;;;16.90;3.35;;;;;;;4.52;63.49;97125.91;4967545;28;20252;-71
2021/04/04 00:08:26;;;;;;;6.13;2.78;;;;;;;4.49;63.10;97131.13;4965260;28;20321;-71
2021/04/04 00:10:53;;;;;;;7.85;2.67;;;;;;;4.52;63.58;97136.22;4966978;28;20260;-71
2021/04/04 00:13:21;;;;;;;7.22;3.25;;;;;;;4.50;63.40;97135.44;4967438;28;20467;-72
2021/04/04 00:15:48;;;;;;;8.20;2.65;;;;;;;4.43;63.72;97131.34;4969431;28;20626;-72
2021/04/04 00:18:14;;;;;;;7.00;2.55;;;;;;;4.44;63.71;97133.03;4970179;28;20648;-73
2021/04/04 00:20:41;;;;;;;11.75;2.58;;;;;;;4.43;63.46;97128.75;4965830;28;20704;-71
2021/04/04 00:23:08;;;;;;;13.13;3.47;;;;;;;4.38;63.67;97128.03;4967481;28;20222;-70
2021/04/04 00:25:36;;;;;;;7.10;2.67;;;;;;;4.24;63.89;97125.03;4968385;28;20676;-70
2021/04/04 00:28:04;;;;;;;5.03;1.90;;;;;;;4.23;64.07;97129.31;4966833;28;20236;-70
2021/04/04 00:30:31;;;;;;;9.77;2.17;;;;;;;4.38;63.77;97125.47;4966709;28;20193;-70
2021/04/04 00:32:58;;;;;;;12.15;2.17;;;;;;;4.42;63.34;97133.06;4966585;28;20232;-70
2021/04/04 00:35:26;;;;;;;6.10;2.40;;;;;;;4.45;63.35;97132.13;4967459;28;20758;-70
2021/04/04 00:37:54;;;;;;;4.63;2.35;;;;;;;4.41;63.52;97127.94;4968136;28;20630;-69
2021/04/04 00:40:24;;;;;;;7.20;1.83;;;;;;;4.35;63.20;97125.56;4968324;28;20583;-70
2021/04/04 00:42:52;;;;;;;6.47;1.80;;;;;;;4.30;63.34;97127.44;4968980;28;20620;-70
2021/04/04 00:45:21;;;;;;;4.60;2.25;;;;;;;4.16;64.01;97132.13;4957913;28;20198;-70
2021/04/04 00:47:49;;;;;;;11.85;2.38;;;;;;;4.10;64.87;97133.16;4956487;28;20579;-69
2021/04/04 00:50:17;;;;;;;4.28;1.92;;;;;;;4.13;64.36;97121.94;4964658;28;20647;-70
2021/04/04 00:52:45;;;;;;;8.35;2.30;;;;;;;4.11;64.58;97129.69;4964816;28;20215;-69
2021/04/04 00:55:16;;;;;;;12.07;3.75;;;;;;;4.12;64.35;97123.66;4969751;28;20300;-71
2021/04/04 00:57:44;;;;;;;5.75;1.92;;;;;;;4.10;64.24;97127.16;4956355;28;20229;-70
2021/04/04 01:00:14;;;;;;;4.22;2.13;;;;;;;4.00;64.03;97123.16;4958213;28;20625;-72
2021/04/04 01:02:42;;;;;;;6.80;2.05;;;;;;;3.97;64.56;97124.97;4967428;28;20220;-71
2021/04/04 01:05:13;;;;;;;4.32;2.10;;;;;;;3.92;64.50;97117.38;4967183;28;20233;-70
2021/04/04 01:07:42;;;;;;;4.50;2.25;;;;;;;3.87;64.70;97119.22;4983261;28;20225;-70
2021/04/04 01:10:11;;;;;;;6.80;2.13;;;;;;;3.84;65.04;97118.47;4967621;28;20222;-71
2021/04/04 01:12:46;;;;;;;6.07;2.65;;;;;;;3.85;65.44;97113.28;4964650;28;20223;-71
2021/04/04 01:15:17;;;;;;;10.05;2.28;;;;;;;3.85;65.24;97110.72;4970208;28;20574;-73
2021/04/04 01:17:48;;;;;;;4.43;2.08;;;;;;;3.88;64.56;97107.22;4974081;28;20625;-72
2021/04/04 01:20:21;;;;;;;6.82;2.33;;;;;;;3.94;64.50;97113.03;4970559;28;20188;-70
2021/04/04 01:23:14;;;;;;;5.65;2.17;;;;;;;3.91;64.31;97115.69;4966339;28;20675;-72
2021/04/04 01:25:49;;;;;;;3.97;1.77;;;;;;;3.85;64.49;97109.84;4966801;28;20228;-73
2021/04/04 01:28:24;;;;;;;4.10;1.52;;;;;;;3.80;64.58;97115.13;4966600;28;20217;-71
2021/04/04 01:30:52;;;;;;;5.43;2.05;;;;;;;3.78;64.98;97114.34;4957395;28;20564;-70
2021/04/04 01:33:22;;;;;;;10.30;1.50;;;;;;;3.71;65.16;97110.25;4967223;28;20605;-70
2021/04/04 01:35:52;;;;;;;13.48;2.42;;;;;;;3.76;65.11;97110.94;4967221;28;20222;-71
2021/04/04 01:38:22;;;;;;;4.50;2.53;;;;;;;3.57;65.91;97114.91;4963818;28;20221;-70
2021/04/04 01:40:55;;;;;;;14.40;2.75;;;;;;;3.44;66.68;97108.38;4967677;28;20187;-71
2021/04/04 01:43:25;;;;;;;5.80;1.80;;;;;;;3.47;66.90;97112.63;4971600;28;20229;-72
2021/04/04 01:45:54;;;;;;;8.65;2.13;;;;;;;3.43;66.74;97109.28;4980806;28;20654;-73
2021/04/04 01:48:22;;;;;;;6.47;1.73;;;;;;;3.46;66.21;97109.19;4967468;28;20230;-73
2021/04/04 01:50:50;;;;;;;6.20;2.20;;;;;;;3.36;66.24;97105.19;4986693;28;20504;-72
2021/04/04 01:53:21;;;;;;;7.72;1.77;;;;;;;3.25;67.13;97106.34;4984147;28;20601;-75
2021/04/04 01:55:48;;;;;;;8.23;2.80;;;;;;;3.33;67.28;97104.41;4969444;28;20662;-75
2021/04/04 01:58:16;;;;;;;5.68;1.95;;;;;;;3.41;66.73;97098.19;4966552;28;20699;-72
2021/04/04 02:00:45;;;;;;;5.18;2.20;;;;;;;3.44;66.20;97094.69;4968021;28;20687;-73
2021/04/04 02:03:13;;;;;;;5.53;2.03;;;;;;;3.44;66.09;97092.13;4968674;28;20227;-71
2021/04/04 02:05:42;;;;;;;4.72;1.63;;;;;;;3.34;66.40;97086.38;4967191;28;20534;-68
2021/04/04 02:08:12;;;;;;;6.40;2.03;;;;;;;3.39;66.54;97086.25;4967826;28;20224;-71
2021/04/04 02:10:41;;;;;;;6.68;2.17;;;;;;;3.39;66.02;97083.69;4982357;28;20462;-71
2021/04/04 02:13:10;;;;;;;7.85;3.05;;;;;;;3.37;66.83;97077.75;4954969;28;20720;-71
2021/04/04 02:15:38;;;;;;;6.88;2.47;;;;;;;3.29;66.81;97080.50;4962535;28;20531;-70
2021/04/04 02:18:08;;;;;;;6.82;1.65;;;;;;;3.20;67.03;97092.75;4966888;28;20270;-73
2021/04/04 02:20:37;;;;;;;3.08;2.13;;;;;;;3.11;67.41;97080.97;4965427;28;20192;-70
2021/04/04 02:23:10;;;;;;;10.25;2.47;;;;;;;3.05;67.64;97088.84;4962338;28;20541;-70
2021/04/04 02:25:37;;;;;;;6.63;2.00;;;;;;;3.00;67.76;97082.97;4960966;28;20234;-72
2021/04/04 02:28:05;;;;;;;12.32;2.78;;;;;;;2.91;67.84;97085.75;4947699;28;20862;-70
2021/04/04 02:30:32;;;;;;;4.70;1.85;;;;;;;2.89;68.19;97095.25;4945520;28;20563;-70
2021/04/04 02:33:03;;;;;;;13.43;3.00;;;;;;;2.86;68.54;97092.72;4947595;28;20581;-70
2021/04/04 02:35:34;;;;;;;6.80;2.08;;;;;;;2.88;68.65;97090.97;4948740;28;20227;-71
2021/04/04 02:38:08;;;;;;;8.32;2.67;;;;;;;2.93;68.04;97094.28;4944983;28;20549;-70
2021/04/04 02:40:39;;;;;;;7.55;2.22;;;;;;;2.86;68.49;97103.00;4947305;28;20658;-72
2021/04/04 02:43:08;;;;;;;6.03;2.42;;;;;;;2.92;68.62;97097.72;4946063;28;20609;-70
2021/04/04 02:45:37;;;;;;;6.18;2.50;;;;;;;2.68;69.18;97087.19;4946027;28;20633;-72
2021/04/04 02:48:07;;;;;;;4.88;2.22;;;;;;;2.73;69.16;97086.19;4945291;28;20235;-71
2021/04/04 02:50:38;;;;;;;4.80;1.98;;;;;;;2.60;69.53;97094.22;4945882;28;20242;-71
2021/04/04 02:53:08;;;;;;;13.10;1.85;;;;;;;2.66;68.94;97083.81;4946599;28;20311;-69
2021/04/04 02:55:37;;;;;;;4.85;2.10;;;;;;;2.76;69.00;97086.13;4947918;28;20202;-71
2021/04/04 02:58:07;;;;;;;6.63;2.67;;;;;;;2.79;68.88;97075.75;4945346;28;20754;-71
2021/04/04 03:00:35;;;;;;;8.40;2.15;;;;;;;2.77;68.54;97081.81;4950314;28;20581;-69
2021/04/04 03:03:05;;;;;;;6.78;2.58;;;;;;;2.73;68.88;97085.34;4938655;28;20258;-68
2021/04/04 03:05:33;;;;;;;5.05;1.83;;;;;;;2.63;68.96;97081.28;4945446;28;20188;-71
2021/04/04 03:08:04;;;;;;;5.13;2.70;;;;;;;2.65;68.83;97082.13;4948503;28;20614;-70
2021/04/04 03:10:32;;;;;;;7.88;2.17;;;;;;;2.58;69.81;97086.53;4949173;28;20578;-71
2021/04/04 03:13:01;;;;;;;5.95;1.75;;;;;;;2.63;69.50;97083.88;4949364;28;20245;-72
2021/04/04 03:15:29;;;;;;;6.75;2.70;;;;;;;2.60;69.51;97084.81;4952139;28;20678;-69
2021/04/04 03:17:58;;;;;;;6.68;2.03;;;;;;;2.65;69.07;97088.09;4951830;28;20899;-72
2021/04/04 03:20:27;;;;;;;6.53;2.00;;;;;;;2.64;68.92;97085.59;4948704;28;20187;-71
2021/04/04 03:22:56;;;;;;;9.00;1.98;;;;;;;2.56;69.72;97088.31;4949402;28;20231;-74
2021/04/04 03:25:25;;;;;;;15.52;2.97;;;;;;;2.56;70.24;97088.31;4947061;28;20582;-72
2021/04/04 03:27:55;;;;;;;5.03;2.45;;;;;;;2.55;70.02;97089.19;4959436;28;20590;-72
2021/04/04 03:33:09;;;;;;;4.28;2.33;;;;;;;2.44;70.18;97091.16;4969691;28;20233;-69
2021/04/04 03:35:37;;;;;;;5.22;2.25;;;;;;;2.33;70.58;97092.28;4967775;28;20257;-71
2021/04/04 03:38:07;;;;;;;4.78;1.92;;;;;;;2.42;70.55;97097.22;4970505;28;20863;-73
2021/04/04 03:40:35;;;;;;;7.93;2.63;;;;;;;2.42;70.36;97095.47;4966322;28;20759;-70
2021/04/04 03:43:08;;;;;;;2.97;1.30;;;;;;;2.41;70.45;97088.66;4971597;28;20554;-70
2021/04/04 03:45:35;;;;;;;5.03;2.60;;;;;;;2.48;70.34;97092.78;4970597;28;20200;-73
2021/04/04 03:48:04;;;;;;;6.47;2.30;;;;;;;2.39;70.24;97090.44;4961504;28;20557;-71
2021/04/04 03:50:33;;;;;;;6.20;2.60;;;;;;;2.37;70.72;97092.16;4969258;28;20618;-72
2021/04/04 03:53:00;;;;;;;4.22;2.20;;;;;;;2.38;70.33;97098.16;4968750;28;20225;-71
2021/04/04 03:55:29;;;;;;;8.75;1.90;;;;;;;2.32;70.99;97096.56;4984588;28;20586;-70
2021/04/04 03:57:58;;;;;;;7.35;2.20;;;;;;;2.31;71.15;97100.03;4966889;28;20764;-70
2021/04/04 04:00:28;;;;;;;5.57;2.58;;;;;;;2.24;70.85;97090.78;4968620;28;20877;-70
2021/04/04 04:02:57;;;;;;;7.03;2.50;;;;;;;2.09;71.14;97096.22;4981953;28;20728;-70
2021/04/04 04:05:24;;;;;;;10.10;3.10;;;;;;;1.90;71.94;97084.66;4966120;28;20199;-70
2021/04/04 04:07:54;;;;;;;8.20;2.80;;;;;;;1.95;71.59;97082.84;4973535;28;20712;-70
2021/04/04 04:10:22;;;;;;;10.52;2.78;;;;;;;1.97;71.41;97082.78;4966821;28;20198;-70
2021/04/04 04:12:51;;;;;;;7.22;3.15;;;;;;;2.04;71.29;97082.66;4971736;28;20248;-70
2021/04/04 04:15:20;;;;;;;2.30;1.35;;;;;;;2.15;70.71;97080.69;4968903;28;20515;-71
2021/04/04 04:17:48;;;;;;;7.78;2.28;;;;;;;2.27;70.61;97085.56;4971180;28;20237;-69
2021/04/04 04:20:16;;;;;;;5.22;2.10;;;;;;;2.20;70.90;97078.88;4966290;28;20684;-69
2021/04/04 04:22:44;;;;;;;5.18;2.42;;;;;;;2.25;70.91;97082.19;4967856;28;20305;-69
2021/04/04 04:25:12;;;;;;;5.53;1.42;;;;;;;2.14;71.13;97079.00;4967758;28;20537;-71
2021/04/04 04:27:41;;;;;;;6.13;2.13;;;;;;;2.14;71.52;97083.28;4967245;28;20214;-71
2021/04/04 04:30:10;;;;;;;10.93;2.50;;;;;;;2.02;71.58;97080.97;4946344;28;20194;-70
2021/04/04 04:32:40;;;;;;;5.38;2.58;;;;;;;2.00;71.68;97077.59;4959549;28;20598;-72
2021/04/04 04:35:09;;;;;;;4.72;2.08;;;;;;;2.06;71.65;97075.75;4959059;28;20187;-71
2021/04/04 04:37:39;;;;;;;3.60;1.60;;;;;;;2.05;71.78;97093.78;4958238;28;20241;-72
2021/04/04 04:40:10;;;;;;;9.90;2.63;;;;;;;1.89;71.36;97064.16;4969367;28;20622;-69
2021/04/04 04:42:40;;;;;;;4.07;2.60;;;;;;;1.92;71.34;97084.63;4966345;28;20668;-70
2021/04/04 04:45:15;;;;;;;4.68;2.38;;;;;;;1.78;71.53;97084.88;4966999;28;20572;-70
2021/04/04 04:47:43;;;;;;;3.92;1.98;;;;;;;1.75;71.66;97081.53;4968653;28;20638;-71
2021/04/04 04:50:13;;;;;;;5.63;2.72;;;;;;;1.69;72.01;97077.38;4967066;28;20217;-70
2021/04/04 04:52:41;;;;;;;11.20;2.55;;;;;;;1.75;71.97;97081.53;4968105;28;20533;-70
2021/04/04 04:55:10;;;;;;;6.18;2.50;;;;;;;1.86;71.58;97083.00;4969623;28;20289;-71
2021/04/04 04:57:39;;;;;;;8.13;2.25;;;;;;;1.89;71.48;97082.97;4969091;28;20607;-70
2021/04/04 05:00:08;;;;;;;9.32;2.80;;;;;;;1.98;71.12;97082.75;4969307;28;20661;-70
2021/04/04 05:02:35;;;;;;;4.22;2.22;;;;;;;1.97;71.19;97075.94;4965424;28;20677;-71
2021/04/04 05:05:05;;;;;;;9.13;2.20;;;;;;;2.01;71.65;97081.88;4966220;28;20201;-72
2021/04/04 05:07:33;;;;;;;3.20;1.55;;;;;;;2.04;71.56;97085.22;4966722;28;20740;-72
2021/04/04 05:10:02;;;;;;;6.15;1.90;;;;;;;2.07;71.63;97082.56;4968534;28;20606;-71
2021/04/04 05:12:30;;;;;;;6.60;2.17;;;;;;;2.05;71.92;97083.50;4964444;28;20727;-72
2021/04/04 05:15:01;;;;;;;6.25;2.35;;;;;;;2.05;71.90;97084.31;4968347;28;20348;-71
2021/04/04 05:17:32;;;;;;;8.35;2.40;;;;;;;2.05;72.00;97084.31;4966706;28;20239;-70
2021/04/04 05:19:59;;;;;;;8.18;1.85;;;;;;;2.13;72.20;97092.72;4966807;28;20790;-72
2021/04/04 05:22:28;;;;;;;4.30;2.15;;;;;;;2.13;72.25;97087.56;4965918;28;20218;-72
2021/04/04 05:24:56;;;;;;;10.25;2.10;;;;;;;2.03;72.87;97080.09;4963059;28;20226;-70
2021/04/04 05:27:24;;;;;;;7.95;2.30;;;;;;;2.04;72.82;97086.91;4967326;28;20547;-71
2021/04/04 05:29:51;;;;;;;4.88;1.45;;;;;;;2.06;72.64;97075.75;4966245;28;20540;-73
2021/04/04 05:32:18;;;;;;;9.82;2.72;;;;;;;2.13;72.25;97072.16;4965501;28;20665;-73
2021/04/04 05:34:45;;;;;;;7.40;2.25;;;;;;;2.22;72.23;97064.25;4966610;28;20782;-72
2021/04/04 05:37:12;;;;;;;4.57;2.20;;;;;;;2.31;72.00;97079.50;4965321;28;20223;-73
2021/04/04 05:39:40;;;;;;;5.10;2.65;;;;;;;2.25;71.11;97079.63;4965684;28;20226;-73
2021/04/04 05:42:09;;;;;;;5.25;2.40;;;;;;;2.29;71.05;97077.81;4967328;28;20484;-73
2021/04/04 05:44:41;;;;;;;11.00;2.75;;;;;;;2.22;70.64;97082.22;4969720;28;20542;-70
2021/04/04 05:47:15;;;;;;;8.63;3.33;;;;;;;2.32;70.19;97082.88;4965688;28;20202;-72
2021/04/04 05:50:03;;;;;;;5.65;2.72;;;;;;;2.14;70.07;97081.56;4965416;28;20286;-71
2021/04/04 05:52:38;;;;;;;6.80;2.78;;;;;;;2.29;70.37;97081.22;4983198;28;20223;-72
2021/04/04 05:55:13;;;;;;;10.30;4.03;;;;;;;2.33;69.50;97074.28;4964533;28;20602;-70
2021/04/04 05:57:46;;;;;;;9.75;4.70;;;;;;;2.42;70.16;97071.53;4964759;28;20733;-70
2021/04/04 06:00:17;;;;;;;11.02;5.13;;;;;;;2.39;69.49;97072.44;4966236;28;20199;-71
2021/04/04 06:03:13;;;;;;;9.48;4.47;;;;;;;2.58;69.54;97071.13;4962997;28;20542;-70
2021/04/04 06:05:59;;;;;;;10.90;3.75;;;;;;;2.94;69.58;97075.38;4956384;28;20656;-71
2021/04/04 06:08:43;;;;;;;8.27;4.53;;;;;;;3.25;69.00;97075.47;4955507;28;20252;-71
2021/04/04 06:11:20;;;;;;;14.07;4.95;;;;;;;3.48;67.61;97079.13;4965826;28;20638;-70
2021/04/04 06:13:56;;;;;;;12.63;4.47;;;;;;;3.60;67.10;97071.06;4965642;28;20715;-70
2021/04/04 06:16:31;;;;;;;11.45;3.25;;;;;;;3.71;67.04;97076.78;4966204;28;20604;-70
2021/04/04 06:19:20;;;;;;;6.70;3.95;;;;;;;3.72;67.34;97082.75;4966071;28;20532;-69
2021/04/04 06:21:57;;;;;;;17.83;4.20;;;;;;;3.97;67.16;97073.47;4964894;28;20830;-71
2021/04/04 06:24:32;;;;;;;8.73;3.55;;;;;;;4.20;66.16;97082.19;4967544;28;20227;-74
2021/04/04 06:27:09;;;;;;;282.65;135.77;;;;;;;4.34;65.97;97064.59;4966925;28;20225;-71
2021/04/04 06:29:54;;;;;;;67.85;27.88;;;;;;;4.65;65.54;97073.09;4969444;28;20191;-70
2021/04/04 06:32:28;;;;;;;8.65;3.05;;;;;;;4.83;64.80;97063.03;4962662;28;20728;-70
2021/04/04 06:35:01;;;;;;;4.68;2.40;;;;;;;4.83;64.29;97064.78;4947923;28;20272;-72
2021/04/04 06:37:44;;;;;;;10.88;2.90;;;;;;;5.04;63.90;97064.06;4962928;28;20226;-71
2021/04/04 06:40:15;;;;;;;5.88;2.78;;;;;;;5.07;64.14;97063.97;4946724;28;20813;-71
2021/04/04 06:43:03;;;;;;;9.02;3.22;;;;;;;5.11;64.08;97065.56;4950194;28;20307;-70
2021/04/04 06:45:38;;;;;;;6.50;2.90;;;;;;;5.57;63.70;97068.25;4965684;28;20183;-71
2021/04/04 06:48:18;;;;;;;4.32;2.38;;;;;;;5.57;62.97;97068.25;4950428;28;20629;-71
2021/04/04 06:50:49;;;;;;;7.15;3.38;;;;;;;5.86;62.55;97071.53;4949852;28;20203;-71
2021/04/04 06:53:29;;;;;;;20.33;6.97;;;;;;;6.02;61.87;97079.56;4963054;28;20233;-71
2021/04/04 06:56:04;;;;;;;26.30;9.57;;;;;;;6.30;60.87;97080.22;4950552;28;20653;-71
2021/04/04 06:58:46;;;;;;;18.13;6.80;;;;;;;6.77;60.34;97074.91;4968343;28;20559;-72
2021/04/04 07:01:35;;;;;;;21.75;4.78;;;;;;;7.06;59.10;97084.13;4980937;28;20524;-71
2021/04/04 07:04:09;;;;;;;11.30;5.30;;;;;;;7.39;58.82;97077.53;4949025;28;20215;-69
2021/04/04 07:07:09;;;;;;;16.38;5.10;;;;;;;7.89;57.24;97081.41;4951524;28;20552;-73
2021/04/04 07:10:10;;;;;;;58.53;26.42;;;;;;;8.50;56.12;97079.44;4942443;28;20245;-71
2021/04/04 07:12:54;;;;;;;12.63;5.57;;;;;;;8.96;54.72;97072.94;4955190;28;20217;-71
2021/04/04 07:15:35;;;;;;;11.90;5.17;;;;;;;9.29;53.68;97076.53;4969610;28;20449;-70
2021/04/04 07:18:17;;;;;;;10.73;4.10;;;;;;;9.58;53.36;97068.94;4968091;28;20786;-70
2021/04/04 07:20:59;;;;;;;15.40;4.50;;;;;;;9.98;52.89;97079.00;4968377;28;20448;-70
2021/04/04 07:23:35;;;;;;;12.97;4.47;;;;;;;10.50;51.71;97067.53;4956252;28;21161;-70
2021/04/04 07:26:11;;;;;;;15.70;5.33;;;;;;;10.70;51.52;97069.06;4970059;28;20851;-71
2021/04/04 07:28:57;;;;;;;12.20;4.90;;;;;;;11.28;50.16;97073.50;4966593;28;20952;-71
2021/04/04 07:31:29;;;;;;;24.53;5.43;;;;;;;11.40;50.45;97071.97;4968772;28;20830;-71
2021/04/04 07:34:05;;;;;;;11.67;5.07;;;;;;;11.45;50.12;97070.81;4972140;28;20653;-70
2021/04/04 07:36:40;;;;;;;12.93;4.33;;;;;;;12.15;48.91;97073.53;4966783;28;20454;-70
2021/04/04 07:39:13;;;;;;;9.33;4.60;;;;;;;12.44;48.59;97075.22;4966905;28;20534;-74
2021/04/04 07:41:48;;;;;;;11.47;5.07;;;;;;;12.97;47.27;97070.16;4967011;28;20445;-70
2021/04/04 07:44:22;;;;;;;11.20;4.53;;;;;;;12.74;46.68;97068.94;4967385;28;20544;-71
2021/04/04 07:46:55;;;;;;;15.50;5.67;;;;;;;12.31;48.49;97071.72;4983746;28;20975;-72
2021/04/04 07:49:33;;;;;;;11.20;5.27;;;;;;;12.28;49.09;97064.03;4948823;28;20774;-71
2021/04/04 07:52:04;;;;;;;9.93;4.43;;;;;;;13.65;47.37;97069.09;4948334;28;20453;-70
2021/04/04 07:54:42;;;;;;;13.20;4.37;;;;;;;13.97;46.38;97058.16;4966983;28;20479;-72
2021/04/04 07:57:18;;;;;;;12.47;4.60;;;;;;;14.02;46.51;97057.84;4972485;28;20442;-72
2021/04/04 07:59:46;;;;;;;15.97;5.03;;;;;;;13.86;45.38;97063.25;4967109;28;20923;-71
2021/04/04 08:02:19;;;;;;;13.30;4.63;;;;;;;13.96;46.41;97063.47;4966171;28;20481;-72
2021/04/04 08:04:49;;;;;;;15.00;4.20;;;;;;;13.96;45.72;97053.84;4961720;28;20795;-71
2021/04/04 08:07:20;;;;;;;10.10;3.90;;;;;;;14.28;46.07;97059.50;4951511;28;20458;-72
2021/04/04 08:09:53;;;;;;;12.33;3.87;;;;;;;14.13;45.82;97055.31;4950142;28;20461;-72
2021/04/04 08:12:35;;;;;;;10.10;4.07;;;;;;;13.93;46.16;97063.69;4951403;28;20481;-71
2021/04/04 08:15:08;;;;;;;11.90;4.00;;;;;;;13.84;46.30;97066.91;4948474;28;20820;-71
2021/04/04 08:17:36;;;;;;;17.73;4.60;;;;;;;13.42;46.97;97062.75;4948397;28;20450;-72
2021/04/04 08:20:11;;;;;;;14.53;4.57;;;;;;;13.40;47.91;97062.03;4946570;28;20514;-70
2021/04/04 08:22:41;;;;;;;9.90;4.17;;;;;;;13.20;47.33;97052.03;4948765;28;21025;-70
2021/04/04 08:25:12;;;;;;;13.87;3.90;;;;;;;12.72;48.26;97062.13;4952974;28;20468;-71
2021/04/04 08:27:47;;;;;;;14.30;4.93;;;;;;;12.70;48.57;97061.41;4965986;28;20465;-70
2021/04/04 08:30:21;;;;;;;35.03;14.07;;;;;;;12.58;48.65;97056.94;4969484;28;20760;-71
2021/04/04 08:32:53;;;;;;;17.53;4.70;;;;;;;12.06;49.43;97063.66;4965442;28;20996;-71
2021/04/04 08:35:24;;;;;;;8.20;3.97;;;;;;;11.64;50.71;97045.34;4961112;28;20459;-73
2021/04/04 08:38:00;;;;;;;9.33;3.83;;;;;;;11.66;51.28;97063.53;4966850;28;20943;-71
2021/04/04 08:40:27;;;;;;;10.27;3.53;;;;;;;11.64;50.40;97052.34;4972395;28;20689;-75
2021/04/04 08:42:55;;;;;;;13.03;4.53;;;;;;;11.42;51.67;97057.94;4966565;28;20453;-73
2021/04/04 08:45:28;;;;;;;9.23;3.30;;;;;;;11.54;50.96;97061.59;4964909;28;20902;-72
2021/04/04 08:47:58;;;;;;;10.30;4.37;;;;;;;11.50;51.40;97058.31;4947100;28;20477;-73
2021/04/04 08:50:27;;;;;;;15.40;4.23;;;;;;;12.06;49.67;97058.44;4951662;28;20593;-75
2021/04/04 08:53:02;;;;;;;11.17;4.80;;;;;;;12.68;49.23;97052.81;4981926;28;20489;-73
2021/04/04 08:55:31;;;;;;;13.00;4.40;;;;;;;13.23;48.26;97053.59;4967560;28;20459;-73
2021/04/04 08:58:02;;;;;;;8.70;3.50;;;;;;;13.97;46.59;97057.28;4966078;28;20462;-73
2021/04/04 09:00:32;;;;;;;7.83;2.90;;;;;;;14.58;44.20;97053.00;4968614;28;20433;-73
2021/04/04 09:03:12;;;;;;;13.13;3.40;;;;;;;14.47;43.56;97050.31;4965913;28;20952;-73
2021/04/04 09:05:39;;;;;;;10.73;3.90;;;;;;;14.38;43.90;97052.72;4967238;28;20445;-74
2021/04/04 09:08:06;;;;;;;9.70;3.57;;;;;;;14.29;43.86;97045.50;4968584;28;20973;-73
2021/04/04 09:10:36;;;;;;;9.97;3.40;;;;;;;14.09;42.87;97048.63;4965164;28;20453;-74
2021/04/04 09:13:08;;;;;;;8.70;3.20;;;;;;;13.86;43.88;97046.72;4956334;28;20481;-73
2021/04/04 09:15:44;;;;;;;5.83;2.63;;;;;;;13.68;44.28;97046.19;4963855;28;20776;-73
2021/04/04 09:18:12;;;;;;;13.13;2.43;;;;;;;13.45;44.61;97046.88;4969213;28;20465;-75
2021/04/04 09:20:40;;;;;;;6.10;2.67;;;;;;;13.72;44.39;97050.25;4968429;28;20778;-71
2021/04/04 09:23:09;;;;;;;6.60;2.70;;;;;;;13.97;42.47;97044.22;4967897;28;20452;-73
2021/04/04 09:25:41;;;;;;;5.87;2.40;;;;;;;14.11;42.92;97041.50;4969192;28;20484;-73
2021/04/04 09:28:10;;;;;;;7.60;3.17;;;;;;;14.94;44.79;97039.03;4965531;28;20777;-75
2021/04/04 09:30:41;;;;;;;5.53;2.57;;;;;;;15.21;43.21;97037.03;4967067;28;20509;-73
2021/04/04 09:33:12;;;;;;;16.00;3.80;;;;;;;14.96;42.56;97039.78;4956725;28;20540;-73
2021/04/04 09:35:41;;;;;;;4.00;2.10;;;;;;;14.70;42.28;97035.56;4957505;28;20496;-74
2021/04/04 09:38:11;;;;;;;4.83;2.40;;;;;;;14.59;42.71;97033.69;4966227;28;20452;-73
2021/04/04 09:40:40;;;;;;;5.20;2.00;;;;;;;14.39;40.33;97041.28;4985595;28;20966;-73
2021/04/04 09:43:09;;;;;;;4.97;2.20;;;;;;;15.16;42.26;97033.91;4961985;28;20465;-74
2021/04/04 09:45:36;;;;;;;7.30;2.27;;;;;;;15.97;40.21;97033.03;4968088;28;20900;-72
2021/04/04 09:48:25;;;;;;;9.50;2.70;;;;;;;15.76;41.15;97032.88;4981262;28;20458;-74
2021/04/04 09:51:06;;;;;;;36.80;19.50;;;;;;;16.65;39.10;97031.19;4962696;28;20468;-76
2021/04/04 09:53:37;;;;;;;12.00;2.43;;;;;;;15.45;38.53;97027.38;4966869;28;20627;-75
2021/04/04 09:56:08;;;;;;;11.90;3.27;;;;;;;15.18;40.66;97029.41;4957761;28;20457;-75
2021/04/04 09:58:39;;;;;;;5.90;2.30;;;;;;;15.51;40.93;97029.56;4956999;28;21145;-75
2021/04/04 10:01:18;;;;;;;8.90;2.73;;;;;;;15.94;41.18;97022.75;4967538;28;21153;-74
2021/04/04 10:03:55;;;;;;;9.40;3.00;;;;;;;16.68;39.77;97023.03;4956028;28;20526;-74
2021/04/04 10:06:23;;;;;;;8.87;3.50;;;;;;;16.25;37.33;97012.41;4964989;28;20509;-74
2021/04/04 10:08:54;;;;;;;9.97;2.70;;;;;;;16.30;40.19;97014.69;4964184;28;20855;-75
2021/04/04 10:11:23;;;;;;;5.27;2.10;;;;;;;15.95;39.94;97013.94;4964926;28;20878;-73
2021/04/04 10:13:50;;;;;;;3.90;2.40;;;;;;;16.75;38.76;97016.34;4981122;28;20867;-74
2021/04/04 10:16:19;;;;;;;7.73;2.67;;;;;;;17.44;38.08;97011.50;4970064;28;20876;-74
2021/04/04 10:19:04;;;;;;;6.17;2.40;;;;;;;17.14;35.15;97010.53;4967033;28;20968;-74
2021/04/04 10:21:32;;;;;;;8.00;2.60;;;;;;;16.87;36.49;97002.22;4965469;28;20444;-74
2021/04/04 10:23:59;;;;;;;6.20;2.60;;;;;;;17.21;37.00;96993.25;4979339;28;20457;-73
2021/04/04 10:26:26;;;;;;;9.03;2.80;;;;;;;17.93;36.52;97003.81;4965254;28;20476;-73
2021/04/04 10:28:56;;;;;;;6.70;3.03;;;;;;;18.61;36.10;96993.47;4967814;28;20465;-74
2021/04/04 10:31:24;;;;;;;5.17;2.20;;;;;;;19.02;35.19;96996.75;4964935;28;20449;-73
2021/04/04 10:33:59;;;;;;;7.47;2.60;;;;;;;19.31;35.05;96987.09;4964527;28;20474;-74
2021/04/04 10:36:28;;;;;;;5.77;2.53;;;;;;;19.70;35.71;96978.22;4966337;28;20433;-74
2021/04/04 10:38:56;;;;;;;5.60;2.30;;;;;;;19.70;33.00;96983.50;4950260;28;20477;-71
2021/04/04 10:41:29;;;;;;;6.97;2.40;;;;;;;19.32;35.59;96978.19;4977760;28;20992;-73
2021/04/04 10:43:56;;;;;;;6.87;2.57;;;;;;;19.38;32.71;96980.28;4943963;28;20984;-73
2021/04/04 10:46:30;;;;;;;10.63;4.00;;;;;;;18.89;36.03;96983.00;4948551;28;21120;-71
2021/04/04 10:48:59;;;;;;;7.50;2.47;;;;;;;19.71;34.45;96977.22;4947619;28;20964;-72
2021/04/04 10:51:51;;;;;;;5.83;2.67;;;;;;;20.47;33.87;96974.38;4947058;28;20516;-70
2021/04/04 10:54:19;;;;;;;11.23;3.00;;;;;;;21.15;33.20;96978.34;4947845;28;21157;-70
2021/04/04 10:56:46;;;;;;;5.97;2.27;;;;;;;21.32;33.30;96966.91;4944110;28;20755;-72
2021/04/04 10:59:14;;;;;;;8.90;2.77;;;;;;;20.77;30.86;96962.69;4964222;28;21033;-73
2021/04/04 11:01:41;;;;;;;8.93;2.43;;;;;;;20.44;32.65;96972.03;4966382;28;20800;-71
2021/04/04 11:04:12;;;;;;;6.27;2.97;;;;;;;21.36;32.41;96963.81;4960872;28;20837;-71
2021/04/04 11:06:39;;;;;;;8.23;2.57;;;;;;;21.76;31.39;96964.19;4945534;28;20434;-70
2021/04/04 11:09:06;;;;;;;8.93;2.33;;;;;;;22.02;31.93;96956.25;4947047;28;20461;-72
2021/04/04 11:11:35;;;;;;;5.03;2.63;;;;;;;22.35;30.74;96958.94;4946266;28;20430;-70
2021/04/04 11:14:02;;;;;;;5.10;2.37;;;;;;;21.99;29.67;96952.09;4946250;28;20493;-72
2021/04/04 11:16:30;;;;;;;5.33;2.60;;;;;;;22.03;30.47;96949.97;4948048;28;20812;-72
2021/04/04 11:18:58;;;;;;;7.30;2.50;;;;;;;21.46;29.85;96943.38;4946805;28;20462;-72
2021/04/04 11:21:28;;;;;;;5.40;2.60;;;;;;;21.22;29.90;96940.50;4962465;28;20495;-72
2021/04/04 11:23:56;;;;;;;5.50;2.40;;;;;;;19.10;31.70;96944.13;4946302;28;20468;-71
2021/04/04 11:26:24;;;;;;;8.67;3.07;;;;;;;18.19;33.00;96939.16;4961242;28;20534;-72
2021/04/04 11:29:11;;;;;;;8.60;2.67;;;;;;;18.92;32.97;96932.59;4965902;28;20477;-72
2021/04/04 11:31:38;;;;;;;5.70;2.40;;;;;;;18.76;33.16;96931.47;4968435;28;20578;-71
2021/04/04 11:34:30;;;;;;;5.43;2.50;;;;;;;17.96;33.70;96925.38;4969392;28;20998;-74
2021/04/04 11:36:58;;;;;;;7.77;3.00;;;;;;;17.20;34.80;96923.19;4967027;28;21165;-75
2021/04/04 11:39:25;;;;;;;7.00;2.77;;;;;;;17.45;34.73;96922.84;4971275;28;20448;-73
2021/04/04 11:41:53;;;;;;;4.40;2.40;;;;;;;17.31;35.10;96925.75;4971464;28;20429;-74
2021/04/04 11:44:28;;;;;;;13.50;3.73;;;;;;;18.05;34.60;96929.84;4959118;28;20862;-76
2021/04/04 11:46:56;;;;;;;5.23;2.70;;;;;;;18.29;33.94;96922.41;4965134;28;20429;-76
2021/04/04 11:49:37;;;;;;;4.60;1.80;;;;;;;18.81;33.52;96919.56;4967575;28;20809;-75
2021/04/04 11:52:46;;;;;;;9.63;2.73;;;;;;;19.95;33.04;96913.34;4967600;28;20930;-74
2021/04/04 11:55:14;;;;;;;4.73;2.27;;;;;;;20.12;33.34;96909.97;4966545;28;20757;-72
2021/04/04 11:57:44;;;;;;;5.23;2.40;;;;;;;20.53;32.58;96910.31;4969400;28;20468;-71
2021/04/04 12:00:21;;;;;;;6.03;2.77;;;;;;;20.79;31.22;96903.34;4973769;28;20458;-73